Time;durP1;ratioP1;P1;durP2;ratioP2;P2;SDS_P1;SDS_P2;PMS_P1;PMS_P2;Temp;Humidity;BMP_temperature;BMP_pressure;BME280_temperature;BME280_humidity;BME280_pressure;Samples;Min_cycle;Max_cycle;Signal;HPM_P1;HPM_P2
2022/04/30 00:00:58;;;;;;;7.78;5.93;;;4.50;99.90;;;;;;5074857;28;20052;-59
2022/04/30 00:03:26;;;;;;;9.07;6.10;;;;;;;;;;5076170;28;20398;-60
2022/04/30 00:05:53;;;;;;;9.98;6.35;;;;;;;;;;5076361;28;20245;-60
2022/04/30 00:08:18;;;;;;;10.93;6.15;;;4.60;99.90;;;;;;5075194;28;20410;-60
2022/04/30 00:10:44;;;;;;;11.57;6.63;;;4.70;99.90;;;;;;5074846;28;20055;-59
2022/04/30 00:13:10;;;;;;;14.95;8.65;;;;;;;;;;5075969;28;20067;-58
2022/04/30 00:15:36;;;;;;;10.45;6.78;;;4.70;99.90;;;;;;5075975;28;20051;-58
2022/04/30 00:18:03;;;;;;;11.85;7.80;;;;;;;;;;5074918;28;20040;-59
2022/04/30 00:20:29;;;;;;;12.18;6.75;;;;;;;;;;5074693;28;20052;-59
2022/04/30 00:22:56;;;;;;;10.77;7.47;;;;;;;;;;5074635;28;20120;-59
2022/04/30 00:25:23;;;;;;;12.35;7.03;;;4.50;99.90;;;;;;5076131;28;20044;-60
2022/04/30 00:27:49;;;;;;;13.02;7.93;;;4.70;99.90;;;;;;5076163;28;20083;-59
2022/04/30 00:30:15;;;;;;;15.85;8.07;;;4.60;99.90;;;;;;5075361;28;20036;-58
2022/04/30 00:32:41;;;;;;;9.73;7.32;;;;;;;;;;5075158;28;20044;-59
2022/04/30 00:35:07;;;;;;;10.45;7.13;;;4.50;99.90;;;;;;5075472;28;20040;-59
2022/04/30 00:37:33;;;;;;;11.40;7.57;;;4.70;99.90;;;;;;5075165;28;20455;-59
2022/04/30 00:39:59;;;;;;;13.57;7.28;;;4.60;99.90;;;;;;5075478;28;20578;-59
2022/04/30 00:42:24;;;;;;;12.00;7.60;;;4.70;99.90;;;;;;5091707;28;20120;-60
2022/04/30 00:44:50;;;;;;;13.98;8.00;;;4.60;99.90;;;;;;5072740;28;20032;-59
2022/04/30 00:47:18;;;;;;;12.60;7.85;;;4.50;99.90;;;;;;5055834;28;20123;-59
2022/04/30 00:49:44;;;;;;;12.95;7.50;;;4.60;99.90;;;;;;5054788;28;20076;-59
2022/04/30 00:52:16;;;;;;;18.15;7.13;;;4.60;99.90;;;;;;5054384;28;20084;-59
2022/04/30 00:54:48;;;;;;;12.23;7.00;;;4.60;99.90;;;;;;5070740;28;20057;-59
2022/04/30 00:57:18;;;;;;;12.00;8.15;;;4.50;99.90;;;;;;5055480;28;20517;-59
2022/04/30 00:59:45;;;;;;;15.07;8.15;;;4.40;99.90;;;;;;5071012;28;20053;-58
2022/04/30 01:02:11;;;;;;;12.00;7.45;;;;;;;;;;5054165;28;20053;-59
2022/04/30 01:04:37;;;;;;;12.07;7.47;;;4.60;99.90;;;;;;5055273;28;20040;-59
2022/04/30 01:07:06;;;;;;;10.88;7.38;;;;;;;;;;5053688;28;20041;-59
2022/04/30 01:09:35;;;;;;;11.73;6.93;;;4.70;99.90;;;;;;5055162;28;20110;-59
2022/04/30 01:12:10;;;;;;;13.98;6.78;;;;;;;;;;5055312;28;20075;-59
2022/04/30 01:14:37;;;;;;;9.60;7.10;;;4.70;99.90;;;;;;5037812;28;20110;-59
2022/04/30 01:17:05;;;;;;;11.90;6.43;;;4.80;99.90;;;;;;5054236;28;20076;-59
2022/04/30 01:19:39;;;;;;;10.35;6.15;;;4.50;99.90;;;;;;5070733;28;20094;-59
2022/04/30 01:22:09;;;;;;;14.80;7.85;;;;;;;;;;5053809;28;20036;-59
2022/04/30 01:24:35;;;;;;;13.02;7.95;;;;;;;;;;5053809;28;20080;-59
2022/04/30 01:27:02;;;;;;;16.15;8.55;;;4.60;99.90;;;;;;5054653;28;20033;-59
2022/04/30 01:29:33;;;;;;;17.95;8.02;;;;;;;;;;5054922;28;20041;-58
2022/04/30 01:37:35;;;;;;;12.93;7.20;;;;;;;;;;5055002;28;20041;-60
2022/04/30 01:40:03;;;;;;;11.88;7.25;;;;;;;;;;5053171;28;20560;-58
2022/04/30 01:42:31;;;;;;;14.63;8.05;;;4.20;99.90;;;;;;5053495;28;20041;-59
2022/04/30 01:44:58;;;;;;;13.18;8.02;;;4.30;99.90;;;;;;5058131;28;20521;-58
2022/04/30 01:47:24;;;;;;;13.65;8.00;;;;;;;;;;5073532;28;20028;-59
2022/04/30 01:49:51;;;;;;;14.50;8.88;;;4.20;99.90;;;;;;5074390;28;20123;-59
2022/04/30 01:52:16;;;;;;;11.05;7.60;;;4.30;99.90;;;;;;5074627;28;20040;-58
2022/04/30 01:54:43;;;;;;;15.32;8.00;;;;;;;;;;5073717;28;20060;-59
2022/04/30 01:57:10;;;;;;;11.20;8.32;;;;;;;;;;5074141;28;20452;-58
2022/04/30 01:59:36;;;;;;;14.35;8.55;;;4.20;99.90;;;;;;5074473;28;20529;-58
2022/04/30 02:02:06;;;;;;;14.40;8.27;;;4.20;99.90;;;;;;5073136;28;20032;-60
2022/04/30 02:04:32;;;;;;;13.23;8.23;;;;;;;;;;5073264;28;20043;-60
2022/04/30 02:06:59;;;;;;;16.48;8.30;;;4.20;99.90;;;;;;5074289;28;20041;-59
2022/04/30 02:09:28;;;;;;;15.90;8.23;;;4.20;99.90;;;;;;5074187;28;20115;-58
2022/04/30 02:11:55;;;;;;;15.18;9.00;;;;;;;;;;5072432;28;20044;-58
2022/04/30 02:14:22;;;;;;;11.80;8.00;;;;;;;;;;5089716;28;20044;-58
2022/04/30 02:16:48;;;;;;;14.35;8.00;;;;;;;;;;5072456;28;20043;-59
2022/04/30 02:19:15;;;;;;;12.70;7.93;;;4.30;99.90;;;;;;5055788;28;20044;-59
2022/04/30 02:21:42;;;;;;;13.20;7.50;;;4.30;99.90;;;;;;5073816;28;20052;-59
2022/04/30 02:24:08;;;;;;;11.85;8.20;;;4.40;99.90;;;;;;5074260;28;20040;-59
2022/04/30 02:26:34;;;;;;;14.57;8.70;;;;;;;;;;5072404;28;20093;-59
2022/04/30 02:29:01;;;;;;;17.92;8.23;;;4.20;99.90;;;;;;5089765;28;20075;-60
2022/04/30 02:31:27;;;;;;;10.38;7.22;;;4.20;99.90;;;;;;5073653;28;20045;-59
2022/04/30 02:33:56;;;;;;;12.90;7.60;;;4.20;99.90;;;;;;5072447;28;20101;-58
2022/04/30 02:36:26;;;;;;;11.07;6.80;;;4.10;99.90;;;;;;5055784;28;20037;-58
2022/04/30 02:38:55;;;;;;;12.60;8.50;;;4.10;99.90;;;;;;5073921;28;20118;-58
2022/04/30 02:41:22;;;;;;;13.02;7.85;;;;;;;;;;5072098;28;20055;-58
2022/04/30 02:43:50;;;;;;;11.60;7.40;;;4.20;99.90;;;;;;5073246;28;20498;-59
2022/04/30 02:46:16;;;;;;;14.57;7.53;;;;;;;;;;5072476;28;20131;-60
2022/04/30 02:48:43;;;;;;;12.13;6.80;;;;;;;;;;5072835;28;20072;-59
2022/04/30 02:51:10;;;;;;;11.68;7.93;;;4.40;99.90;;;;;;5073211;28;20509;-58
2022/04/30 02:53:39;;;;;;;14.07;8.60;;;4.40;99.90;;;;;;5073029;28;20056;-59
2022/04/30 02:56:05;;;;;;;13.63;6.70;;;4.40;99.90;;;;;;5073367;28;20049;-59
2022/04/30 03:01:19;;;;;;;12.23;7.18;;;;;;;;;;5073083;28;20127;-58
2022/04/30 03:03:46;;;;;;;14.43;8.32;;;4.30;99.90;;;;;;5073549;28;20045;-59
2022/04/30 03:06:13;;;;;;;11.30;7.72;;;4.40;99.90;;;;;;5073400;28;20086;-60
2022/04/30 03:08:40;;;;;;;14.30;7.45;;;;;;;;;;5073558;28;20107;-59
2022/04/30 03:11:07;;;;;;;10.23;7.38;;;4.40;99.90;;;;;;5073101;28;20040;-60
2022/04/30 03:13:36;;;;;;;10.70;7.45;;;4.60;99.90;;;;;;5071876;28;20048;-59
2022/04/30 03:21:41;;;;;;;12.60;7.35;;;4.50;99.90;;;;;;5073012;28;20106;-60
2022/04/30 03:21:46;;;;;;;13.48;7.22;;;4.30;99.90;;;;;;5072691;28;20048;-59
2022/04/30 03:24:21;;;;;;;14.60;8.27;;;4.50;99.90;;;;;;5071808;28;20052;-59
2022/04/30 03:26:48;;;;;;;14.93;8.70;;;4.30;99.90;;;;;;5071847;28;20127;-59
2022/04/30 03:29:18;;;;;;;14.57;8.15;;;;;;;;;;5073117;28;20083;-60
2022/04/30 03:31:44;;;;;;;13.30;8.10;;;4.40;99.90;;;;;;5089357;28;20080;-59
2022/04/30 03:34:11;;;;;;;13.23;8.15;;;4.50;99.90;;;;;;5071811;28;20096;-60
2022/04/30 03:36:37;;;;;;;12.82;7.30;;;4.40;99.90;;;;;;5073210;28;20048;-60
2022/04/30 03:39:03;;;;;;;14.57;8.55;;;4.70;99.90;;;;;;5072094;28;20364;-59
2022/04/30 03:41:29;;;;;;;17.92;8.00;;;4.60;99.90;;;;;;5072574;28;20041;-59
2022/04/30 03:43:55;;;;;;;15.50;8.10;;;4.60;99.90;;;;;;5072694;28;20166;-60
2022/04/30 03:46:20;;;;;;;13.02;8.10;;;4.60;99.90;;;;;;5072214;28;20051;-59
2022/04/30 03:48:51;;;;;;;14.23;8.52;;;4.70;99.90;;;;;;5071716;28;20051;-59
2022/04/30 03:51:17;;;;;;;11.88;7.93;;;;;;;;;;5073292;28;20080;-60
2022/04/30 03:53:43;;;;;;;15.35;7.72;;;4.50;99.90;;;;;;5088346;28;20079;-59
2022/04/30 03:56:09;;;;;;;11.50;6.38;;;;;;;;;;5073077;28;20522;-59
2022/04/30 03:58:36;;;;;;;9.98;7.25;;;;;;;;;;5071775;28;20037;-60
2022/04/30 04:01:02;;;;;;;16.15;8.05;;;;;;;;;;5072755;28;20047;-60
2022/04/30 04:03:28;;;;;;;16.63;8.82;;;;;;;;;;5072596;28;20040;-59
2022/04/30 04:05:54;;;;;;;12.48;8.15;;;;;;;;;;5070858;28;20037;-60
2022/04/30 04:08:20;;;;;;;12.85;8.30;;;;;;;;;;5072654;28;20394;-59
2022/04/30 04:10:46;;;;;;;16.15;7.10;;;;;;;;;;5075046;28;20048;-59
2022/04/30 04:18:42;;;;;;;14.43;8.25;;;;;;;;;;5074967;28;20052;-57
2022/04/30 04:21:09;;;;;;;10.85;7.47;;;;;;;;;;5076080;28;20041;-59
2022/04/30 04:26:20;;;;;;;17.70;8.70;;;;;;;;;;5075012;28;20076;-59
2022/04/30 04:28:46;;;;;;;11.40;7.50;;;;;;;;;;5074889;28;20763;-59
2022/04/30 04:31:12;;;;;;;15.25;8.82;;;;;;;;;;5076462;28;20108;-59
2022/04/30 04:33:38;;;;;;;15.38;8.38;;;;;;;;;;5076140;28;20040;-60
2022/04/30 04:36:04;;;;;;;13.23;8.45;;;4.70;99.90;;;;;;5075984;28;20109;-60
2022/04/30 04:38:31;;;;;;;18.13;8.90;;;;;;;;;;5074710;28;20036;-59
2022/04/30 04:40:57;;;;;;;17.17;9.15;;;4.70;99.90;;;;;;5090591;28;20037;-59
2022/04/30 04:43:23;;;;;;;10.52;6.85;;;;;;;;;;5091017;28;20043;-59
2022/04/30 04:45:49;;;;;;;12.15;8.35;;;;;;;;;;5070478;28;20363;-59
2022/04/30 04:48:15;;;;;;;13.80;8.45;;;;;;;;;;5057828;28;20122;-59
2022/04/30 04:50:41;;;;;;;20.58;8.98;;;;;;;;;;5054271;28;20501;-60
2022/04/30 04:53:07;;;;;;;14.43;8.48;;;;;;;;;;5055875;28;20045;-61
2022/04/30 04:55:33;;;;;;;14.43;8.10;;;;;;;;;;5050909;28;20061;-60
2022/04/30 04:57:59;;;;;;;18.10;8.90;;;4.70;99.90;;;;;;5051415;28;20080;-61
2022/04/30 05:00:25;;;;;;;16.40;9.30;;;;;;;;;;5050818;28;20045;-59
2022/04/30 05:02:53;;;;;;;13.55;7.95;;;;;;;;;;5066358;28;20055;-60
2022/04/30 05:05:19;;;;;;;14.45;8.18;;;;;;;;;;5067445;28;20048;-60
2022/04/30 05:07:45;;;;;;;14.93;8.25;;;;;;;;;;5070702;28;20047;-59
2022/04/30 05:10:11;;;;;;;12.15;7.90;;;;;;;;;;5086263;28;20070;-60
2022/04/30 05:12:37;;;;;;;14.07;8.88;;;5.00;99.90;;;;;;5086359;28;20127;-59
2022/04/30 05:15:03;;;;;;;13.93;8.77;;;5.30;99.90;;;;;;5068012;28;20505;-60
2022/04/30 05:17:29;;;;;;;15.70;9.32;;;;;;;;;;5087183;28;20102;-60
2022/04/30 05:19:55;;;;;;;22.42;10.38;;;;;;;;;;5071439;28;20061;-61
2022/04/30 05:22:21;;;;;;;12.85;8.73;;;;;;;;;;5070116;28;20106;-60
2022/04/30 05:24:47;;;;;;;18.17;9.35;;;;;;;;;;5071491;28;20086;-60
2022/04/30 05:27:13;;;;;;;13.45;8.85;;;;;;;;;;5071810;28;20045;-60
2022/04/30 05:29:38;;;;;;;19.08;9.95;;;;;;;;;;5078093;28;20076;-59
2022/04/30 05:32:05;;;;;;;18.60;10.25;;;;;;;;;;5069802;28;20064;-61
2022/04/30 05:34:30;;;;;;;18.38;10.40;;;5.70;99.90;;;;;;5070192;28;20041;-61
2022/04/30 05:36:56;;;;;;;18.75;9.98;;;;;;;;;;5069826;28;20063;-60
2022/04/30 05:39:22;;;;;;;18.75;10.70;;;;;;;;;;5068987;28;20083;-61
2022/04/30 05:41:48;;;;;;;16.00;10.73;;;5.90;99.90;;;;;;5069930;28;20451;-60
2022/04/30 05:44:14;;;;;;;16.70;10.75;;;5.90;99.90;;;;;;5085805;28;20041;-62
2022/04/30 05:46:39;;;;;;;13.18;9.15;;;;;;;;;;5051975;28;20032;-60
2022/04/30 05:49:05;;;;;;;16.08;11.18;;;;;;;;;;5068586;28;20050;-61
2022/04/30 05:51:31;;;;;;;14.13;9.27;;;;;;;;;;5069920;28;20045;-61
2022/04/30 05:53:57;;;;;;;16.45;9.95;;;;;;;;;;5068508;28;20510;-61
2022/04/30 05:56:23;;;;;;;11.95;9.27;;;6.60;99.90;;;;;;5068413;28;20048;-60
2022/04/30 05:58:49;;;;;;;17.30;10.07;;;;;;;;;;5070214;28;20048;-60
2022/04/30 06:01:15;;;;;;;16.10;9.70;;;;;;;;;;5068046;28;20048;-60
2022/04/30 06:03:41;;;;;;;16.58;10.05;;;;;;;;;;5069636;28;20041;-61
2022/04/30 06:06:07;;;;;;;16.52;10.70;;;;;;;;;;5068010;28;20051;-61
2022/04/30 06:08:33;;;;;;;14.55;9.40;;;7.00;99.90;;;;;;5068322;28;20045;-60
2022/04/30 06:11:00;;;;;;;16.50;10.73;;;;;;;;;;5069565;28;20032;-61
2022/04/30 06:13:25;;;;;;;18.85;10.75;;;7.20;99.90;;;;;;5068086;28;20498;-60
2022/04/30 06:15:52;;;;;;;17.00;10.82;;;;;;;;;;5063725;28;20044;-61
2022/04/30 06:18:20;;;;;;;13.15;10.40;;;;;;;;;;5067625;28;20037;-61
2022/04/30 06:20:46;;;;;;;13.93;9.70;;;;;;;;;;5053033;28;20041;-61
2022/04/30 06:23:15;;;;;;;16.45;9.20;;;;;;;;;;5063093;28;20044;-58
2022/04/30 06:25:41;;;;;;;15.88;10.82;;;7.60;99.90;;;;;;5064098;28;20398;-62
2022/04/30 06:28:08;;;;;;;15.48;10.15;;;7.70;99.90;;;;;;5041971;28;20044;-62
2022/04/30 06:30:35;;;;;;;13.82;10.45;;;;;;;;;;5082919;28;20052;-62
2022/04/30 06:33:01;;;;;;;16.05;10.45;;;;;;;;;;5066092;28;20055;-61
2022/04/30 06:35:27;;;;;;;20.20;10.75;;;;;;;;;;5063842;28;20043;-62
2022/04/30 06:37:53;;;;;;;14.73;9.15;;;;;;;;;;5067946;28;20446;-62
2022/04/30 06:40:20;;;;;;;13.43;9.68;;;;;;;;;;5064480;28;20410;-61
2022/04/30 06:42:46;;;;;;;14.25;9.25;;;;;;;;;;5062100;28;20517;-61
2022/04/30 06:45:13;;;;;;;19.70;10.93;;;;;;;;;;5054300;28;20106;-64
2022/04/30 06:47:39;;;;;;;17.33;10.23;;;;;;;;;;5047406;28;20043;-62
2022/04/30 06:50:06;;;;;;;16.42;9.95;;;8.00;99.90;;;;;;5062911;28;20040;-62
2022/04/30 06:52:32;;;;;;;19.73;9.93;;;;;;;;;;5083743;28;20044;-62
2022/04/30 06:57:43;;;;;;;15.68;8.77;;;;;;;;;;5062290;28;20563;-63
2022/04/30 07:02:57;;;;;;;16.67;9.85;;;8.20;99.90;;;;;;5051494;28;20036;-62
2022/04/30 07:05:23;;;;;;;12.90;9.80;;;8.30;99.90;;;;;;5066435;28;20401;-62
2022/04/30 07:07:49;;;;;;;16.45;9.52;;;;;;;;;;5083551;28;20071;-61
2022/04/30 07:10:15;;;;;;;18.83;9.88;;;;;;;;;;5065763;28;20156;-63
2022/04/30 07:12:41;;;;;;;14.57;9.25;;;;;;;;;;5065922;28;20055;-62
2022/04/30 07:15:07;;;;;;;11.88;8.57;;;;;;;;;;5066146;28;20438;-63
2022/04/30 07:17:33;;;;;;;14.73;9.23;;;;;;;;;;5048314;28;20150;-63
2022/04/30 07:19:59;;;;;;;11.70;8.57;;;;;;;;;;5066297;28;20087;-63
2022/04/30 07:22:24;;;;;;;14.27;8.30;;;8.80;99.90;;;;;;5067930;28;20108;-62
2022/04/30 07:24:51;;;;;;;11.40;7.60;;;;;;;;;;5065605;28;20045;-64
2022/04/30 07:27:16;;;;;;;13.98;7.65;;;8.80;99.90;;;;;;5048601;28;20040;-63
2022/04/30 07:29:43;;;;;;;14.48;7.55;;;;;;;;;;5048878;28;20048;-63
2022/04/30 07:32:09;;;;;;;11.70;7.57;;;9.00;99.90;;;;;;5048664;28;20045;-63
2022/04/30 07:34:35;;;;;;;15.68;8.10;;;8.90;99.90;;;;;;5064443;28;20044;-62
2022/04/30 07:37:10;;;;;;;12.25;8.02;;;;;;;;;;5048828;28;20045;-62
2022/04/30 07:39:36;;;;;;;15.30;7.90;;;;;;;;;;5064066;28;20094;-62
2022/04/30 07:42:02;;;;;;;12.40;7.70;;;9.10;99.90;;;;;;5047924;28;20120;-62
2022/04/30 07:44:30;;;;;;;12.60;7.20;;;;;;;;;;5064889;28;20047;-62
2022/04/30 07:46:56;;;;;;;11.27;8.02;;;;;;;;;;5070634;28;20044;-62
2022/04/30 07:49:21;;;;;;;16.42;8.38;;;9.40;99.90;;;;;;5054433;28;20101;-62
2022/04/30 07:51:55;;;;;;;12.90;7.57;;;9.40;99.90;;;;;;5068172;28;20487;-61
2022/04/30 07:54:21;;;;;;;14.27;7.45;;;;;;;;;;5052012;28;20061;-62
2022/04/30 07:56:50;;;;;;;14.95;7.60;;;9.60;99.90;;;;;;5052299;28;20105;-62
2022/04/30 07:59:16;;;;;;;10.52;6.95;;;;;;;;;;5054486;28;20044;-62
2022/04/30 08:01:42;;;;;;;10.93;7.45;;;9.60;99.90;;;;;;5087614;28;20430;-60
2022/04/30 08:04:08;;;;;;;11.77;7.50;;;;;;;;;;5072242;28;20044;-60
2022/04/30 08:06:33;;;;;;;13.65;7.55;;;9.70;99.90;;;;;;5072172;28;20036;-60
2022/04/30 08:08:59;;;;;;;11.27;7.63;;;9.70;99.90;;;;;;5072213;28;20036;-60
2022/04/30 08:11:25;;;;;;;11.43;7.75;;;;;;;;;;5072241;28;20052;-61
2022/04/30 08:13:51;;;;;;;11.82;7.85;;;;;;;;;;5072100;28;20075;-60
2022/04/30 08:16:16;;;;;;;12.30;7.78;;;10.10;99.90;;;;;;5072176;28;20068;-61
2022/04/30 08:18:42;;;;;;;13.35;8.00;;;;;;;;;;5076924;28;20051;-61
2022/04/30 08:21:08;;;;;;;14.38;7.75;;;10.40;99.90;;;;;;5066972;28;20527;-61
2022/04/30 08:23:36;;;;;;;10.35;7.90;;;10.80;99.90;;;;;;5064975;28;20149;-61
2022/04/30 08:26:03;;;;;;;13.60;7.30;;;10.50;99.90;;;;;;5055446;28;20519;-61
2022/04/30 08:28:29;;;;;;;15.40;7.45;;;;;;;;;;5060451;28;20566;-61
2022/04/30 08:30:55;;;;;;;12.73;7.47;;;;;;;;;;5076246;28;20600;-61
2022/04/30 08:33:21;;;;;;;7.35;6.22;;;11.30;99.90;;;;;;5063420;28;20616;-61
2022/04/30 08:35:48;;;;;;;7.82;6.15;;;;;;;;;;5067895;28;20102;-61
2022/04/30 08:38:14;;;;;;;11.05;6.50;;;;;;;;;;5064199;28;20149;-61
2022/04/30 08:40:42;;;;;;;10.32;6.28;;;11.50;99.90;;;;;;5054643;28;20503;-61
2022/04/30 08:43:11;;;;;;;13.05;7.40;;;11.50;99.90;;;;;;5067826;28;20494;-60
2022/04/30 08:45:38;;;;;;;9.38;6.75;;;11.50;99.90;;;;;;5066353;28;20670;-60
2022/04/30 08:48:08;;;;;;;13.27;7.18;;;11.60;99.90;;;;;;5065556;28;20037;-61
2022/04/30 08:50:34;;;;;;;13.32;7.10;;;;;;;;;;5059457;28;20044;-63
2022/04/30 08:53:00;;;;;;;9.45;6.75;;;;;;;;;;5038264;28;20133;-62
2022/04/30 08:55:26;;;;;;;10.98;7.70;;;;;;;;;;5062284;28;20662;-61
2022/04/30 08:57:52;;;;;;;14.07;7.75;;;11.70;99.90;;;;;;5061561;28;20052;-61
2022/04/30 09:00:19;;;;;;;14.98;7.60;;;;;;;;;;5052652;28;20045;-61
2022/04/30 09:02:53;;;;;;;9.77;7.22;;;11.70;99.90;;;;;;5059864;28;20044;-61
2022/04/30 09:05:19;;;;;;;10.68;6.72;;;;;;;;;;5082029;28;20098;-61
2022/04/30 09:07:59;;;;;;;11.30;6.40;;;11.50;99.90;;;;;;5073361;28;20048;-64
2022/04/30 09:10:27;;;;;;;8.65;6.60;;;11.60;99.90;;;;;;5049338;28;20055;-62
2022/04/30 09:12:53;;;;;;;12.43;7.97;;;11.50;99.90;;;;;;5051242;28;20037;-62
2022/04/30 09:15:20;;;;;;;11.85;6.55;;;;;;;;;;5067612;28;20052;-62
2022/04/30 09:17:59;;;;;;;15.05;7.38;;;11.40;99.90;;;;;;5066695;28;20045;-63
2022/04/30 09:20:25;;;;;;;7.95;6.28;;;11.50;99.90;;;;;;5065748;28;20049;-63
2022/04/30 09:22:51;;;;;;;13.30;6.82;;;11.30;99.90;;;;;;5069619;28;20040;-64
2022/04/30 09:25:18;;;;;;;12.60;7.63;;;11.60;99.90;;;;;;5050637;28;20041;-63
2022/04/30 09:27:53;;;;;;;8.77;6.35;;;11.50;99.90;;;;;;5058033;28;20506;-64
2022/04/30 09:30:29;;;;;;;12.50;6.13;;;11.50;99.90;;;;;;5062335;28;20072;-62
2022/04/30 09:32:59;;;;;;;8.98;5.97;;;11.50;99.90;;;;;;5070545;28;20048;-62
2022/04/30 09:38:09;;;;;;;9.70;5.85;;;11.50;99.90;;;;;;5070528;28;20080;-61
2022/04/30 09:40:35;;;;;;;8.38;5.72;;;;;;;;;;5070433;28;20042;-61
2022/04/30 09:43:02;;;;;;;10.13;4.90;;;;;;;;;;5070079;28;20131;-61
2022/04/30 09:45:30;;;;;;;10.05;6.03;;;11.50;99.90;;;;;;5085342;28;20051;-61
2022/04/30 09:47:56;;;;;;;9.27;5.65;;;11.70;99.90;;;;;;5070154;28;20052;-62
2022/04/30 09:55:56;;;;;;;4.88;4.10;;;11.60;99.90;;;;;;5085970;28;20056;-62
2022/04/30 09:58:27;;;;;;;8.48;4.95;;;11.70;99.90;;;;;;5070138;28;20040;-62
2022/04/30 10:00:58;;;;;;;6.38;4.00;;;11.50;99.90;;;;;;5069779;28;20494;-62
2022/04/30 10:03:26;;;;;;;8.82;5.18;;;11.80;99.90;;;;;;5069994;28;20110;-61
2022/04/30 10:05:59;;;;;;;8.95;6.13;;;11.60;99.90;;;;;;5063576;28;20628;-62
2022/04/30 10:08:28;;;;;;;9.88;6.35;;;11.70;99.90;;;;;;5053640;28;20503;-63
2022/04/30 10:11:09;;;;;;;11.73;8.45;;;11.70;99.90;;;;;;5068200;28;20052;-63
2022/04/30 10:14:01;;;;;;;9.90;6.45;;;11.60;99.90;;;;;;5085014;28;20072;-63
2022/04/30 10:16:28;;;;;;;11.02;6.95;;;11.50;99.90;;;;;;5069821;28;20044;-63
2022/04/30 10:19:16;;;;;;;12.45;7.28;;;11.40;99.90;;;;;;5068631;28;20762;-63
2022/04/30 10:21:42;;;;;;;9.57;7.22;;;;;;;;;;5067182;28;20083;-62
2022/04/30 10:24:12;;;;;;;11.73;6.95;;;11.40;99.90;;;;;;5071416;28;20058;-62
2022/04/30 10:26:38;;;;;;;8.80;7.18;;;;;;;;;;5063827;28;20044;-62
2022/04/30 10:29:11;;;;;;;12.40;7.75;;;11.40;99.90;;;;;;5048274;28;20043;-62
2022/04/30 10:31:44;;;;;;;9.25;6.70;;;11.30;99.90;;;;;;5048611;28;20041;-62
2022/04/30 10:34:11;;;;;;;11.65;7.07;;;11.30;99.90;;;;;;5081394;28;20044;-62
2022/04/30 10:36:38;;;;;;;13.88;8.13;;;11.40;99.90;;;;;;5083930;28;20624;-62
2022/04/30 10:39:09;;;;;;;11.32;8.32;;;;;;;;;;5083734;28;20036;-62
2022/04/30 10:41:45;;;;;;;12.65;7.45;;;11.30;99.90;;;;;;5068200;28;20044;-62
2022/04/30 10:44:13;;;;;;;12.07;7.50;;;11.30;99.90;;;;;;5064364;28;20052;-62
2022/04/30 10:46:44;;;;;;;12.02;8.60;;;11.40;99.90;;;;;;5052054;28;20048;-62
2022/04/30 10:49:11;;;;;;;12.60;7.53;;;11.40;99.90;;;;;;5065887;28;20069;-63
2022/04/30 10:51:41;;;;;;;10.38;7.00;;;11.10;99.90;;;;;;5070688;28;20054;-62
2022/04/30 10:54:18;;;;;;;15.80;8.32;;;11.60;99.90;;;;;;5047948;28;20106;-62
2022/04/30 10:56:45;;;;;;;11.45;8.60;;;11.30;99.90;;;;;;5048384;28;20047;-63
2022/04/30 10:59:10;;;;;;;11.43;8.23;;;;;;;;;;5048114;28;20041;-62
2022/04/30 11:01:36;;;;;;;12.50;7.82;;;11.40;99.90;;;;;;5063606;28;20663;-62
2022/04/30 11:04:02;;;;;;;12.63;8.05;;;11.50;99.90;;;;;;5063563;28;20056;-62
2022/04/30 11:06:31;;;;;;;11.88;7.60;;;11.60;99.90;;;;;;5048117;28;20044;-62
2022/04/30 11:09:01;;;;;;;13.43;7.22;;;11.50;99.90;;;;;;5048054;28;20033;-62
2022/04/30 11:11:28;;;;;;;9.82;7.75;;;11.60;99.90;;;;;;5067662;28;20120;-62
2022/04/30 11:14:05;;;;;;;8.55;7.63;;;11.60;99.90;;;;;;5067454;28;20036;-62
2022/04/30 11:16:41;;;;;;;12.70;8.18;;;11.60;99.90;;;;;;5083605;28;20529;-62
2022/04/30 11:19:15;;;;;;;14.02;8.43;;;11.60;99.90;;;;;;5055239;28;20048;-62
2022/04/30 11:21:47;;;;;;;15.23;7.95;;;11.80;99.90;;;;;;5052237;28;20044;-62
2022/04/30 11:24:25;;;;;;;12.77;7.60;;;11.80;99.90;;;;;;5057487;28;20036;-61
2022/04/30 11:27:03;;;;;;;10.15;6.93;;;11.70;99.90;;;;;;5069565;28;20118;-62
2022/04/30 11:29:29;;;;;;;14.63;6.97;;;11.70;99.90;;;;;;5087458;28;20045;-62
2022/04/30 11:31:56;;;;;;;11.15;7.72;;;12.00;99.90;;;;;;5071933;28;20072;-62
2022/04/30 11:34:23;;;;;;;11.18;7.90;;;12.00;99.90;;;;;;5050316;28;20140;-63
2022/04/30 11:36:51;;;;;;;12.63;8.10;;;11.80;99.90;;;;;;5067126;28;20128;-63
2022/04/30 11:39:18;;;;;;;11.40;7.40;;;12.00;99.90;;;;;;5067179;28;20055;-63
2022/04/30 11:41:48;;;;;;;12.32;7.60;;;12.20;99.90;;;;;;5067038;28;20577;-63
2022/04/30 11:44:16;;;;;;;10.48;6.85;;;12.10;99.90;;;;;;5066827;28;20048;-62
2022/04/30 11:46:44;;;;;;;11.00;7.15;;;12.10;99.90;;;;;;5067997;28;20048;-62
2022/04/30 11:49:10;;;;;;;10.57;7.38;;;12.30;99.90;;;;;;5085332;28;20402;-63
2022/04/30 11:51:36;;;;;;;11.05;6.30;;;12.40;99.90;;;;;;5071420;28;20048;-62
2022/04/30 11:54:03;;;;;;;13.43;7.10;;;12.30;99.90;;;;;;5087682;28;20056;-62
2022/04/30 11:56:30;;;;;;;14.30;7.78;;;12.30;99.90;;;;;;5071848;28;20052;-62
2022/04/30 11:58:56;;;;;;;11.45;7.43;;;12.50;99.90;;;;;;5069423;28;20059;-62
2022/04/30 12:01:24;;;;;;;11.50;6.85;;;12.60;99.90;;;;;;5071495;28;20075;-62
2022/04/30 12:03:58;;;;;;;12.93;7.75;;;12.60;99.90;;;;;;5074227;28;20060;-62
2022/04/30 12:06:25;;;;;;;13.38;7.20;;;12.60;99.90;;;;;;5090501;28;20090;-62
2022/04/30 12:08:51;;;;;;;8.60;6.88;;;12.70;99.90;;;;;;5072189;28;20044;-64
2022/04/30 12:11:17;;;;;;;12.35;7.28;;;12.60;99.90;;;;;;5064347;28;20048;-63
2022/04/30 12:13:43;;;;;;;11.13;7.15;;;12.70;99.90;;;;;;5054808;28;20164;-63
2022/04/30 12:16:09;;;;;;;10.13;6.50;;;12.60;99.90;;;;;;5059970;28;20033;-63
2022/04/30 12:27:02;;;;;;;9.07;5.82;;;12.70;99.90;;;;;;5053494;28;20045;-63
2022/04/30 12:29:29;;;;;;;9.15;6.20;;;12.80;99.90;;;;;;5056455;28;20487;-65
2022/04/30 12:31:56;;;;;;;11.73;6.15;;;12.70;99.90;;;;;;5074291;28;20537;-65
2022/04/30 12:34:24;;;;;;;7.50;5.93;;;12.80;99.90;;;;;;5074450;28;20048;-65
2022/04/30 12:36:57;;;;;;;14.77;6.93;;;12.80;99.90;;;;;;5074408;28;20036;-65
2022/04/30 12:39:23;;;;;;;11.82;6.00;;;12.70;99.90;;;;;;5073157;28;20120;-65
2022/04/30 12:41:51;;;;;;;8.65;5.68;;;12.70;99.90;;;;;;5089797;28;20398;-66
2022/04/30 12:44:16;;;;;;;6.85;5.35;;;12.90;99.90;;;;;;5074176;28;20486;-65
2022/04/30 12:46:45;;;;;;;10.65;5.90;;;12.90;99.90;;;;;;5085285;28;20115;-65
2022/04/30 12:49:12;;;;;;;8.55;5.43;;;12.80;99.90;;;;;;5072074;28;20048;-65
2022/04/30 12:51:39;;;;;;;8.10;4.43;;;12.80;99.90;;;;;;5074293;28;20068;-65
2022/04/30 12:54:06;;;;;;;9.15;5.45;;;12.80;99.90;;;;;;5073834;28;20561;-64
2022/04/30 12:56:32;;;;;;;10.43;5.35;;;12.70;99.90;;;;;;5073838;28;20510;-64
2022/04/30 12:58:58;;;;;;;8.38;5.60;;;;;;;;;;5069442;28;20033;-65
2022/04/30 13:01:24;;;;;;;10.20;5.80;;;12.90;99.90;;;;;;5054311;28;20044;-65
2022/04/30 13:03:50;;;;;;;7.07;5.35;;;12.80;99.90;;;;;;5072193;28;20402;-64
2022/04/30 13:06:16;;;;;;;7.70;5.65;;;12.70;99.90;;;;;;5072558;28;20032;-65
2022/04/30 13:14:11;;;;;;;9.05;5.18;;;12.80;99.90;;;;;;5087684;28;20049;-65
2022/04/30 13:16:37;;;;;;;6.03;5.10;;;12.70;99.90;;;;;;5071511;28;20033;-66
2022/04/30 13:19:04;;;;;;;8.27;5.72;;;;;;;;;;5072048;28;20126;-65
2022/04/30 13:21:30;;;;;;;8.23;5.30;;;;;;;;;;5070898;28;20604;-65
2022/04/30 13:23:56;;;;;;;8.30;5.45;;;12.70;99.90;;;;;;5057675;28;20141;-65
2022/04/30 13:26:22;;;;;;;8.77;5.45;;;12.40;99.90;;;;;;5055319;28;20033;-64
2022/04/30 13:28:48;;;;;;;8.52;5.50;;;;;;;;;;5053952;28;20040;-65
2022/04/30 13:31:13;;;;;;;12.02;5.47;;;12.50;99.90;;;;;;5070453;28;20563;-65
2022/04/30 13:33:39;;;;;;;10.43;6.00;;;12.60;99.90;;;;;;5070085;28;20028;-65
2022/04/30 13:36:05;;;;;;;11.27;6.78;;;12.50;99.90;;;;;;5071816;28;20036;-64
2022/04/30 13:38:34;;;;;;;11.38;5.47;;;12.60;99.90;;;;;;5087949;28;20297;-65
2022/04/30 13:41:01;;;;;;;9.73;5.95;;;12.50;99.90;;;;;;5053826;28;20064;-64
2022/04/30 13:43:27;;;;;;;10.50;5.32;;;;;;;;;;5071941;28;20032;-64
2022/04/30 13:45:53;;;;;;;7.00;6.00;;;12.50;99.90;;;;;;5077660;28;20040;-63
2022/04/30 13:48:18;;;;;;;9.93;4.80;;;12.40;99.90;;;;;;5053063;28;20058;-63
2022/04/30 13:50:45;;;;;;;11.82;4.88;;;12.40;99.90;;;;;;5068358;28;20491;-63
2022/04/30 13:53:11;;;;;;;7.10;5.00;;;12.30;99.90;;;;;;5068033;28;20049;-63
2022/04/30 13:55:37;;;;;;;9.05;4.63;;;12.20;99.90;;;;;;5053070;28;20123;-63
2022/04/30 13:58:03;;;;;;;11.10;5.10;;;12.20;99.90;;;;;;5052802;28;20116;-63
2022/04/30 14:00:29;;;;;;;9.23;5.15;;;12.30;99.90;;;;;;5052795;28;20045;-63
2022/04/30 14:02:55;;;;;;;7.85;4.88;;;12.10;99.90;;;;;;5068014;28;20051;-63
2022/04/30 14:05:21;;;;;;;8.50;5.35;;;12.10;99.90;;;;;;5052677;28;20029;-64
2022/04/30 14:07:47;;;;;;;7.15;5.03;;;11.90;99.90;;;;;;5068012;28;20495;-63